sensor_id;sensor_type;location;lat;lon;timestamp;pressure;altitude;pressure_sealevel;temperature;humidity
78444;BME280;67739;52.986;8.894;2023-04-25T00:01:04;100704.25;;;7.02;88.88
78444;BME280;67739;52.986;8.894;2023-04-25T00:03:30;100705.31;;;6.97;88.84
78444;BME280;67739;52.986;8.894;2023-04-25T00:05:57;100701.19;;;6.88;88.01
78444;BME280;67739;52.986;8.894;2023-04-25T00:08:23;100714.00;;;6.77;87.42
78444;BME280;67739;52.986;8.894;2023-04-25T00:10:48;100705.44;;;6.67;87.39
78444;BME280;67739;52.986;8.894;2023-04-25T00:13:14;100717.19;;;6.62;87.98
78444;BME280;67739;52.986;8.894;2023-04-25T00:15:40;100708.50;;;6.55;87.93
78444;BME280;67739;52.986;8.894;2023-04-25T00:18:06;100720.19;;;6.51;88.39
78444;BME280;67739;52.986;8.894;2023-04-25T00:20:32;100723.03;;;6.47;88.24
78444;BME280;67739;52.986;8.894;2023-04-25T00:22:57;100720.50;;;6.42;88.30
78444;BME280;67739;52.986;8.894;2023-04-25T00:25:22;100720.53;;;6.41;88.22
78444;BME280;67739;52.986;8.894;2023-04-25T00:27:48;100726.78;;;6.39;88.21
78444;BME280;67739;52.986;8.894;2023-04-25T00:30:14;100727.63;;;6.42;88.38
78444;BME280;67739;52.986;8.894;2023-04-25T00:32:39;100724.13;;;6.39;88.44
78444;BME280;67739;52.986;8.894;2023-04-25T00:35:05;100734.78;;;6.39;87.96
78444;BME280;67739;52.986;8.894;2023-04-25T00:37:30;100731.25;;;6.39;87.98
78444;BME280;67739;52.986;8.894;2023-04-25T00:39:57;100737.44;;;6.39;88.51
78444;BME280;67739;52.986;8.894;2023-04-25T00:42:24;100733.09;;;6.37;87.97
78444;BME280;67739;52.986;8.894;2023-04-25T00:44:51;100735.88;;;6.34;88.26
78444;BME280;67739;52.986;8.894;2023-04-25T00:47:17;100738.47;;;6.35;87.83
78444;BME280;67739;52.986;8.894;2023-04-25T00:49:43;100736.66;;;6.36;87.78
78444;BME280;67739;52.986;8.894;2023-04-25T00:52:09;100736.66;;;6.36;88.10
78444;BME280;67739;52.986;8.894;2023-04-25T00:54:34;100742.00;;;6.36;88.22
78444;BME280;67739;52.986;8.894;2023-04-25T00:56:59;100747.31;;;6.36;88.24
78444;BME280;67739;52.986;8.894;2023-04-25T00:59:27;100742.00;;;6.36;88.02
78444;BME280;67739;52.986;8.894;2023-04-25T01:01:53;100744.81;;;6.31;88.04
78444;BME280;67739;52.986;8.894;2023-04-25T01:04:18;100744.81;;;6.31;87.86
78444;BME280;67739;52.986;8.894;2023-04-25T01:06:44;100742.25;;;6.28;87.83
78444;BME280;67739;52.986;8.894;2023-04-25T01:09:10;100741.41;;;6.26;87.62
78444;BME280;67739;52.986;8.894;2023-04-25T01:11:35;100746.75;;;6.26;87.43
78444;BME280;67739;52.986;8.894;2023-04-25T01:14:01;100750.34;;;6.25;87.23
78444;BME280;67739;52.986;8.894;2023-04-25T01:16:27;100751.28;;;6.23;87.45
78444;BME280;67739;52.986;8.894;2023-04-25T01:18:53;100764.72;;;6.20;87.12
78444;BME280;67739;52.986;8.894;2023-04-25T01:21:19;100758.66;;;6.15;86.92
78444;BME280;67739;52.986;8.894;2023-04-25T01:23:44;100764.03;;;6.13;86.74
78444;BME280;67739;52.986;8.894;2023-04-25T01:26:11;100761.44;;;6.10;86.89
78444;BME280;67739;52.986;8.894;2023-04-25T01:28:38;100773.03;;;6.09;86.97
78444;BME280;67739;52.986;8.894;2023-04-25T01:31:06;100767.75;;;6.08;86.69
78444;BME280;67739;52.986;8.894;2023-04-25T01:33:31;100772.28;;;6.06;86.93
78444;BME280;67739;52.986;8.894;2023-04-25T01:35:57;100783.75;;;6.06;86.48
78444;BME280;67739;52.986;8.894;2023-04-25T01:38:23;100777.63;;;6.04;86.48
78444;BME280;67739;52.986;8.894;2023-04-25T01:40:49;100783.97;;;6.00;86.46
78444;BME280;67739;52.986;8.894;2023-04-25T01:43:15;100786.66;;;5.98;86.50
78444;BME280;67739;52.986;8.894;2023-04-25T01:45:41;100794.69;;;5.97;86.56
78444;BME280;67739;52.986;8.894;2023-04-25T01:48:08;100802.72;;;5.95;86.70
78444;BME280;67739;52.986;8.894;2023-04-25T01:50:34;100797.44;;;5.94;86.76
78444;BME280;67739;52.986;8.894;2023-04-25T01:53:00;100806.47;;;5.90;86.10
78444;BME280;67739;52.986;8.894;2023-04-25T01:55:26;100800.28;;;5.88;86.23
78444;BME280;67739;52.986;8.894;2023-04-25T01:57:52;100802.97;;;5.86;86.66
78444;BME280;67739;52.986;8.894;2023-04-25T02:00:17;100809.25;;;5.84;86.13
78444;BME280;67739;52.986;8.894;2023-04-25T02:02:43;100803.97;;;5.82;86.27
78444;BME280;67739;52.986;8.894;2023-04-25T02:05:08;100814.66;;;5.81;86.33
78444;BME280;67739;52.986;8.894;2023-04-25T02:07:33;100812.03;;;5.79;85.79
78444;BME280;67739;52.986;8.894;2023-04-25T02:09:59;100815.72;;;5.75;85.63
78444;BME280;67739;52.986;8.894;2023-04-25T02:12:24;100812.22;;;5.73;85.63
78444;BME280;67739;52.986;8.894;2023-04-25T02:14:51;100809.59;;;5.72;85.69
78444;BME280;67739;52.986;8.894;2023-04-25T02:17:16;100817.53;;;5.73;85.68
78444;BME280;67739;52.986;8.894;2023-04-25T02:19:43;100812.25;;;5.72;85.93
78444;BME280;67739;52.986;8.894;2023-04-25T02:22:08;100814.97;;;5.70;85.42
78444;BME280;67739;52.986;8.894;2023-04-25T02:24:33;100807.00;;;5.68;85.46
78444;BME280;67739;52.986;8.894;2023-04-25T02:27:00;100813.28;;;5.66;85.04
78444;BME280;67739;52.986;8.894;2023-04-25T02:29:25;100819.53;;;5.65;85.08
78444;BME280;67739;52.986;8.894;2023-04-25T02:31:50;100806.34;;;5.62;85.13
78444;BME280;67739;52.986;8.894;2023-04-25T02:34:16;100807.22;;;5.62;84.96
78444;BME280;67739;52.986;8.894;2023-04-25T02:36:41;100809.94;;;5.59;84.54
78444;BME280;67739;52.986;8.894;2023-04-25T02:39:06;100798.53;;;5.54;84.64
78444;BME280;67739;52.986;8.894;2023-04-25T02:41:32;100810.09;;;5.53;84.39
78444;BME280;67739;52.986;8.894;2023-04-25T02:43:57;100797.84;;;5.48;84.16
78444;BME280;67739;52.986;8.894;2023-04-25T02:46:22;100799.72;;;5.44;83.98
78444;BME280;67739;52.986;8.894;2023-04-25T02:48:48;100801.63;;;5.39;84.31
78444;BME280;67739;52.986;8.894;2023-04-25T02:51:13;100805.22;;;5.37;84.41
78444;BME280;67739;52.986;8.894;2023-04-25T02:53:39;100801.81;;;5.33;83.96
78444;BME280;67739;52.986;8.894;2023-04-25T02:56:04;100808.09;;;5.29;84.15
78444;BME280;67739;52.986;8.894;2023-04-25T02:58:30;100804.66;;;5.25;83.92
78444;BME280;67739;52.986;8.894;2023-04-25T03:00:55;100809.19;;;5.20;84.14
78444;BME280;67739;52.986;8.894;2023-04-25T03:03:20;100811.97;;;5.17;83.87
78444;BME280;67739;52.986;8.894;2023-04-25T03:05:49;100812.94;;;5.13;83.56
78444;BME280;67739;52.986;8.894;2023-04-25T03:08:16;100812.19;;;5.08;83.95
78444;BME280;67739;52.986;8.894;2023-04-25T03:10:41;100825.53;;;5.05;83.73
78444;BME280;67739;52.986;8.894;2023-04-25T03:13:07;100814.09;;;5.03;84.14
78444;BME280;67739;52.986;8.894;2023-04-25T03:15:32;100813.25;;;5.01;84.25
78444;BME280;67739;52.986;8.894;2023-04-25T03:17:58;100807.94;;;5.01;84.28
78444;BME280;67739;52.986;8.894;2023-04-25T03:20:23;100808.84;;;5.00;84.05
78444;BME280;67739;52.986;8.894;2023-04-25T03:22:48;100818.63;;;5.00;83.90
78444;BME280;67739;52.986;8.894;2023-04-25T03:25:14;100823.97;;;4.98;84.21
78444;BME280;67739;52.986;8.894;2023-04-25T03:27:39;100824.84;;;4.98;84.34
78444;BME280;67739;52.986;8.894;2023-04-25T03:30:05;100829.22;;;5.01;84.39
78444;BME280;67739;52.986;8.894;2023-04-25T03:32:31;100828.34;;;5.01;84.45
78444;BME280;67739;52.986;8.894;2023-04-25T03:34:57;100836.31;;;5.01;84.39
78444;BME280;67739;52.986;8.894;2023-04-25T03:37:22;100833.66;;;5.01;84.53
78444;BME280;67739;52.986;8.894;2023-04-25T03:39:47;100830.13;;;5.00;84.05
78444;BME280;67739;52.986;8.894;2023-04-25T03:42:13;100835.44;;;5.00;84.09
78444;BME280;67739;52.986;8.894;2023-04-25T03:44:38;100838.09;;;5.00;84.01
78444;BME280;67739;52.986;8.894;2023-04-25T03:47:03;100845.19;;;5.00;84.35
78444;BME280;67739;52.986;8.894;2023-04-25T03:49:28;100847.88;;;4.98;84.18
78444;BME280;67739;52.986;8.894;2023-04-25T03:51:54;100850.56;;;4.98;84.07
78444;BME280;67739;52.986;8.894;2023-04-25T03:54:19;100848.84;;;4.95;84.08
78444;BME280;67739;52.986;8.894;2023-04-25T03:56:45;100852.41;;;4.94;83.73
78444;BME280;67739;52.986;8.894;2023-04-25T03:59:10;100857.72;;;4.94;84.00
78444;BME280;67739;52.986;8.894;2023-04-25T04:01:35;100863.94;;;4.93;83.63
78444;BME280;67739;52.986;8.894;2023-04-25T04:04:01;100857.75;;;4.93;83.60
78444;BME280;67739;52.986;8.894;2023-04-25T04:06:26;100858.72;;;4.90;83.32
78444;BME280;67739;52.986;8.894;2023-04-25T04:08:52;100870.28;;;4.89;83.48
78444;BME280;67739;52.986;8.894;2023-04-25T04:11:17;100870.28;;;4.89;83.16
78444;BME280;67739;52.986;8.894;2023-04-25T04:13:42;100864.13;;;4.86;83.21
78444;BME280;67739;52.986;8.894;2023-04-25T04:16:08;100873.03;;;4.85;83.01
78444;BME280;67739;52.986;8.894;2023-04-25T04:18:33;100871.31;;;4.82;82.89
78444;BME280;67739;52.986;8.894;2023-04-25T04:20:59;100879.34;;;4.79;82.92
78444;BME280;67739;52.986;8.894;2023-04-25T04:23:24;100883.81;;;4.77;82.55
78444;BME280;67739;52.986;8.894;2023-04-25T04:25:52;100872.44;;;4.72;82.87
78444;BME280;67739;52.986;8.894;2023-04-25T04:28:18;100884.00;;;4.70;82.91
78444;BME280;67739;52.986;8.894;2023-04-25T04:30:43;100892.06;;;4.65;83.06
78444;BME280;67739;52.986;8.894;2023-04-25T04:33:11;100897.44;;;4.62;82.90
78444;BME280;67739;52.986;8.894;2023-04-25T04:35:37;100901.97;;;4.58;83.03
78444;BME280;67739;52.986;8.894;2023-04-25T04:38:02;100900.28;;;4.54;83.05
78444;BME280;67739;52.986;8.894;2023-04-25T04:40:28;100906.50;;;4.53;83.24
78444;BME280;67739;52.986;8.894;2023-04-25T04:42:53;100911.84;;;4.52;83.38
78444;BME280;67739;52.986;8.894;2023-04-25T04:45:21;100916.31;;;4.50;83.44
78444;BME280;67739;52.986;8.894;2023-04-25T04:47:47;100917.22;;;4.49;83.70
78444;BME280;67739;52.986;8.894;2023-04-25T04:50:13;100919.00;;;4.48;83.77
78444;BME280;67739;52.986;8.894;2023-04-25T04:52:40;100919.09;;;4.45;83.47
78444;BME280;67739;52.986;8.894;2023-04-25T04:55:06;100918.28;;;4.42;83.72
78444;BME280;67739;52.986;8.894;2023-04-25T04:57:31;100919.13;;;4.44;83.71
78444;BME280;67739;52.986;8.894;2023-04-25T04:59:58;100929.72;;;4.45;84.17
78444;BME280;67739;52.986;8.894;2023-04-25T05:02:24;100922.53;;;4.49;84.36
78444;BME280;67739;52.986;8.894;2023-04-25T05:04:50;100924.22;;;4.53;84.50
78444;BME280;67739;52.986;8.894;2023-04-25T05:07:16;100927.69;;;4.56;84.53
78444;BME280;67739;52.986;8.894;2023-04-25T05:09:42;100927.63;;;4.59;84.25
78444;BME280;67739;52.986;8.894;2023-04-25T05:12:07;100924.00;;;4.62;84.09
78444;BME280;67739;52.986;8.894;2023-04-25T05:14:32;100939.91;;;4.65;83.74
78444;BME280;67739;52.986;8.894;2023-04-25T05:16:58;100941.63;;;4.68;84.05
78444;BME280;67739;52.986;8.894;2023-04-25T05:19:23;100938.91;;;4.71;83.52
78444;BME280;67739;52.986;8.894;2023-04-25T05:21:48;100943.25;;;4.75;83.60
78444;BME280;67739;52.986;8.894;2023-04-25T05:24:14;100938.75;;;4.77;83.23
78444;BME280;67739;52.986;8.894;2023-04-25T05:26:39;100951.88;;;4.84;83.32
78444;BME280;67739;52.986;8.894;2023-04-25T05:29:05;100957.09;;;4.89;83.51
78444;BME280;67739;52.986;8.894;2023-04-25T05:31:31;100956.13;;;4.91;82.17
78444;BME280;67739;52.986;8.894;2023-04-25T05:33:57;100959.59;;;4.96;82.32
78444;BME280;67739;52.986;8.894;2023-04-25T05:36:22;100955.91;;;5.02;82.84
78444;BME280;67739;52.986;8.894;2023-04-25T05:38:47;100962.84;;;5.09;82.40
78444;BME280;67739;52.986;8.894;2023-04-25T05:41:13;100958.31;;;5.13;81.94
78444;BME280;67739;52.986;8.894;2023-04-25T05:43:38;100960.88;;;5.17;81.76
78444;BME280;67739;52.986;8.894;2023-04-25T05:46:04;100968.78;;;5.20;81.45
78444;BME280;67739;52.986;8.894;2023-04-25T05:48:29;100962.53;;;5.21;80.47
78444;BME280;67739;52.986;8.894;2023-04-25T05:50:55;100969.63;;;5.22;80.22
78444;BME280;67739;52.986;8.894;2023-04-25T05:53:20;100977.59;;;5.22;79.81
78444;BME280;67739;52.986;8.894;2023-04-25T05:55:47;100973.97;;;5.26;80.17
78444;BME280;67739;52.986;8.894;2023-04-25T05:58:12;100970.06;;;5.41;82.51
78444;BME280;67739;52.986;8.894;2023-04-25T06:00:37;100971.16;;;5.68;83.37
78444;BME280;67739;52.986;8.894;2023-04-25T06:03:03;100978.47;;;5.95;82.04
78444;BME280;67739;52.986;8.894;2023-04-25T06:05:29;100982.19;;;6.22;81.16
78444;BME280;67739;52.986;8.894;2023-04-25T06:07:54;100966.47;;;6.44;78.78
78444;BME280;67739;52.986;8.894;2023-04-25T06:10:20;100976.50;;;6.65;77.79
78444;BME280;67739;52.986;8.894;2023-04-25T06:12:45;100979.34;;;6.90;77.97
78444;BME280;67739;52.986;8.894;2023-04-25T06:15:10;100989.34;;;7.12;74.86
78444;BME280;67739;52.986;8.894;2023-04-25T06:17:36;100978.09;;;7.30;75.06
78444;BME280;67739;52.986;8.894;2023-04-25T06:20:01;100986.41;;;7.49;74.39
78444;BME280;67739;52.986;8.894;2023-04-25T06:22:27;100983.16;;;7.65;74.34
78444;BME280;67739;52.986;8.894;2023-04-25T06:24:52;100979.94;;;7.82;71.61
78444;BME280;67739;52.986;8.894;2023-04-25T06:27:17;100986.72;;;7.92;70.43
78444;BME280;67739;52.986;8.894;2023-04-25T06:29:43;100990.78;;;8.04;70.53
78444;BME280;67739;52.986;8.894;2023-04-25T06:32:08;100993.94;;;8.15;69.82
78444;BME280;67739;52.986;8.894;2023-04-25T06:34:33;100992.66;;;8.25;69.11
78444;BME280;67739;52.986;8.894;2023-04-25T06:36:59;100988.56;;;8.41;69.40
78444;BME280;67739;52.986;8.894;2023-04-25T06:39:24;100992.53;;;8.55;67.86
78444;BME280;67739;52.986;8.894;2023-04-25T06:41:50;100988.72;;;8.62;65.32
78444;BME280;67739;52.986;8.894;2023-04-25T06:44:16;100990.28;;;8.67;66.37
78444;BME280;67739;52.986;8.894;2023-04-25T06:46:41;101004.16;;;8.78;66.50
78444;BME280;67739;52.986;8.894;2023-04-25T06:49:06;101001.78;;;8.94;66.38
78444;BME280;67739;52.986;8.894;2023-04-25T06:51:32;101006.34;;;9.14;66.33
78444;BME280;67739;52.986;8.894;2023-04-25T06:53:57;101013.66;;;9.32;65.14
78444;BME280;67739;52.986;8.894;2023-04-25T06:56:23;101000.16;;;9.35;61.65
78444;BME280;67739;52.986;8.894;2023-04-25T06:58:49;101012.53;;;9.38;62.22
78444;BME280;67739;52.986;8.894;2023-04-25T07:01:14;101017.41;;;9.50;62.22
78444;BME280;67739;52.986;8.894;2023-04-25T07:03:39;101019.06;;;9.52;60.09
78444;BME280;67739;52.986;8.894;2023-04-25T07:06:05;101018.41;;;9.47;60.88
78444;BME280;67739;52.986;8.894;2023-04-25T07:08:31;101020.88;;;9.30;59.16
78444;BME280;67739;52.986;8.894;2023-04-25T07:10:56;101019.72;;;9.14;60.88
78444;BME280;67739;52.986;8.894;2023-04-25T07:13:21;101015.06;;;8.96;60.11
78444;BME280;67739;52.986;8.894;2023-04-25T07:15:46;101026.22;;;8.83;61.29
78444;BME280;67739;52.986;8.894;2023-04-25T07:18:13;101022.00;;;8.78;61.95
78444;BME280;67739;52.986;8.894;2023-04-25T07:20:38;101026.63;;;8.73;62.03
78444;BME280;67739;52.986;8.894;2023-04-25T07:23:04;101028.59;;;8.68;62.06
78444;BME280;67739;52.986;8.894;2023-04-25T07:25:29;101032.38;;;8.62;62.49
78444;BME280;67739;52.986;8.894;2023-04-25T07:27:55;101035.22;;;8.58;61.94
78444;BME280;67739;52.986;8.894;2023-04-25T07:30:21;101042.59;;;8.51;63.25
78444;BME280;67739;52.986;8.894;2023-04-25T07:32:46;101044.56;;;8.46;62.77
78444;BME280;67739;52.986;8.894;2023-04-25T07:35:12;101028.41;;;8.49;63.70
78444;BME280;67739;52.986;8.894;2023-04-25T07:37:37;101033.00;;;8.69;65.72
78444;BME280;67739;52.986;8.894;2023-04-25T07:40:03;101041.75;;;8.97;64.81
78444;BME280;67739;52.986;8.894;2023-04-25T07:42:29;101042.50;;;9.24;61.90
78444;BME280;67739;52.986;8.894;2023-04-25T07:44:55;101047.97;;;9.44;61.44
78444;BME280;67739;52.986;8.894;2023-04-25T07:47:20;101046.97;;;9.69;61.20
78444;BME280;67739;52.986;8.894;2023-04-25T07:49:46;101051.41;;;9.91;60.78
78444;BME280;67739;52.986;8.894;2023-04-25T07:52:12;101051.44;;;10.12;59.03
78444;BME280;67739;52.986;8.894;2023-04-25T07:54:37;101053.38;;;10.30;58.28
78444;BME280;67739;52.986;8.894;2023-04-25T07:57:03;101043.50;;;10.52;57.10
78444;BME280;67739;52.986;8.894;2023-04-25T07:59:28;101052.66;;;10.67;53.07
78444;BME280;67739;52.986;8.894;2023-04-25T08:01:53;101047.38;;;10.66;52.50
78444;BME280;67739;52.986;8.894;2023-04-25T08:04:19;101048.16;;;10.68;52.36
78444;BME280;67739;52.986;8.894;2023-04-25T08:06:44;101052.19;;;10.78;53.55
78444;BME280;67739;52.986;8.894;2023-04-25T08:09:10;101047.31;;;10.86;55.49
78444;BME280;67739;52.986;8.894;2023-04-25T08:11:36;101050.56;;;10.94;56.91
78444;BME280;67739;52.986;8.894;2023-04-25T08:14:02;101058.44;;;10.97;57.81
78444;BME280;67739;52.986;8.894;2023-04-25T08:16:27;101063.91;;;10.95;57.80
78444;BME280;67739;52.986;8.894;2023-04-25T08:18:53;101058.06;;;10.86;57.41
78444;BME280;67739;52.986;8.894;2023-04-25T08:21:18;101068.59;;;10.70;54.43
78444;BME280;67739;52.986;8.894;2023-04-25T08:23:43;101075.19;;;10.43;52.67
78444;BME280;67739;52.986;8.894;2023-04-25T08:26:08;101075.84;;;10.27;54.28
78444;BME280;67739;52.986;8.894;2023-04-25T08:28:34;101071.75;;;10.19;55.50
78444;BME280;67739;52.986;8.894;2023-04-25T08:30:59;101078.31;;;10.10;54.42
78444;BME280;67739;52.986;8.894;2023-04-25T08:33:25;101080.56;;;9.99;54.69
78444;BME280;67739;52.986;8.894;2023-04-25T08:35:50;101093.53;;;9.88;55.01
78444;BME280;67739;52.986;8.894;2023-04-25T08:38:17;101102.91;;;9.78;55.53
78444;BME280;67739;52.986;8.894;2023-04-25T08:40:43;101143.47;;;9.67;56.40
78444;BME280;67739;52.986;8.894;2023-04-25T08:43:09;101144.03;;;9.30;53.70
78444;BME280;67739;52.986;8.894;2023-04-25T08:45:41;101152.16;;;8.79;54.66
78444;BME280;67739;52.986;8.894;2023-04-25T08:48:15;101136.25;;;8.22;57.81
78444;BME280;67739;52.986;8.894;2023-04-25T08:50:52;101135.72;;;7.82;59.89
78444;BME280;67739;52.986;8.894;2023-04-25T08:53:21;101135.44;;;7.64;63.26
78444;BME280;67739;52.986;8.894;2023-04-25T08:55:48;101143.56;;;7.59;64.26
78444;BME280;67739;52.986;8.894;2023-04-25T08:58:15;101142.59;;;7.62;66.66
78444;BME280;67739;52.986;8.894;2023-04-25T09:00:40;101150.47;;;7.66;65.72
78444;BME280;67739;52.986;8.894;2023-04-25T09:03:06;101147.56;;;7.74;66.63
78444;BME280;67739;52.986;8.894;2023-04-25T09:05:34;101156.13;;;7.85;66.14
78444;BME280;67739;52.986;8.894;2023-04-25T09:08:01;101165.53;;;7.97;66.23
78444;BME280;67739;52.986;8.894;2023-04-25T09:10:27;101166.81;;;8.13;65.32
78444;BME280;67739;52.986;8.894;2023-04-25T09:13:13;101162.81;;;8.26;65.95
78444;BME280;67739;52.986;8.894;2023-04-25T09:15:50;101163.22;;;8.42;65.74
78444;BME280;67739;52.986;8.894;2023-04-25T09:18:26;101149.31;;;8.57;63.60
78444;BME280;67739;52.986;8.894;2023-04-25T09:20:53;101157.16;;;8.88;65.96
78444;BME280;67739;52.986;8.894;2023-04-25T09:23:20;101164.41;;;9.09;60.38
78444;BME280;67739;52.986;8.894;2023-04-25T09:25:47;101163.78;;;9.26;59.41
78444;BME280;67739;52.986;8.894;2023-04-25T09:28:13;101171.44;;;9.37;57.96
78444;BME280;67739;52.986;8.894;2023-04-25T09:30:38;101171.97;;;9.46;58.57
78444;BME280;67739;52.986;8.894;2023-04-25T09:33:08;101175.13;;;9.57;57.77
78444;BME280;67739;52.986;8.894;2023-04-25T09:35:42;101177.31;;;9.70;56.44
78444;BME280;67739;52.986;8.894;2023-04-25T09:38:14;101182.47;;;9.76;55.22
78444;BME280;67739;52.986;8.894;2023-04-25T09:40:44;101178.47;;;9.86;57.20
78444;BME280;67739;52.986;8.894;2023-04-25T09:43:19;101174.75;;;9.90;56.00
78444;BME280;67739;52.986;8.894;2023-04-25T09:45:45;101178.19;;;9.93;56.34
78444;BME280;67739;52.986;8.894;2023-04-25T09:48:19;101180.94;;;9.92;56.01
78444;BME280;67739;52.986;8.894;2023-04-25T09:50:51;101192.25;;;9.77;54.41
78444;BME280;67739;52.986;8.894;2023-04-25T09:53:28;101199.22;;;9.57;56.34
78444;BME280;67739;52.986;8.894;2023-04-25T09:55:55;101214.66;;;9.51;57.77
78444;BME280;67739;52.986;8.894;2023-04-25T09:58:23;101209.41;;;9.48;59.23
78444;BME280;67739;52.986;8.894;2023-04-25T10:00:50;101217.41;;;9.49;56.87
78444;BME280;67739;52.986;8.894;2023-04-25T10:03:17;101215.81;;;9.44;55.97
78444;BME280;67739;52.986;8.894;2023-04-25T10:05:43;101202.75;;;9.35;56.14
78444;BME280;67739;52.986;8.894;2023-04-25T10:08:09;101215.09;;;9.39;57.49
78444;BME280;67739;52.986;8.894;2023-04-25T10:10:36;101208.25;;;9.55;57.61
78444;BME280;67739;52.986;8.894;2023-04-25T10:13:04;101201.22;;;9.76;57.70
78444;BME280;67739;52.986;8.894;2023-04-25T10:15:31;101205.59;;;10.00;57.01
78444;BME280;67739;52.986;8.894;2023-04-25T10:17:58;101211.03;;;10.22;56.17
78444;BME280;67739;52.986;8.894;2023-04-25T10:20:23;101211.91;;;10.44;55.35
78444;BME280;67739;52.986;8.894;2023-04-25T10:22:54;101210.69;;;10.53;54.58
78444;BME280;67739;52.986;8.894;2023-04-25T10:25:22;101209.50;;;10.38;52.19
78444;BME280;67739;52.986;8.894;2023-04-25T10:27:51;101209.78;;;10.31;52.26
78444;BME280;67739;52.986;8.894;2023-04-25T10:30:18;101209.34;;;10.19;54.20
78444;BME280;67739;52.986;8.894;2023-04-25T10:32:44;101212.72;;;10.01;52.98
78444;BME280;67739;52.986;8.894;2023-04-25T10:35:12;101223.75;;;9.93;53.67
78444;BME280;67739;52.986;8.894;2023-04-25T10:37:38;101231.41;;;9.81;54.11
78444;BME280;67739;52.986;8.894;2023-04-25T10:40:10;101255.72;;;9.51;53.80
78444;BME280;67739;52.986;8.894;2023-04-25T10:42:35;101262.78;;;9.03;55.84
78444;BME280;67739;52.986;8.894;2023-04-25T10:45:07;101252.28;;;8.70;58.58
78444;BME280;67739;52.986;8.894;2023-04-25T10:47:36;101246.00;;;8.45;60.43
78444;BME280;67739;52.986;8.894;2023-04-25T10:50:06;101259.75;;;8.33;63.06
78444;BME280;67739;52.986;8.894;2023-04-25T10:52:33;101249.84;;;8.36;65.66
78444;BME280;67739;52.986;8.894;2023-04-25T10:54:58;101246.78;;;8.48;67.30
78444;BME280;67739;52.986;8.894;2023-04-25T10:57:28;101234.66;;;8.65;68.02
78444;BME280;67739;52.986;8.894;2023-04-25T11:00:01;101247.25;;;8.88;69.96
78444;BME280;67739;52.986;8.894;2023-04-25T11:02:30;101239.88;;;9.20;70.94
78444;BME280;67739;52.986;8.894;2023-04-25T11:04:56;101236.19;;;9.48;69.22
78444;BME280;67739;52.986;8.894;2023-04-25T11:07:34;101240.75;;;9.69;69.28
78444;BME280;67739;52.986;8.894;2023-04-25T11:10:03;101247.09;;;9.90;66.03
78444;BME280;67739;52.986;8.894;2023-04-25T11:12:30;101240.34;;;10.03;66.25
78444;BME280;67739;52.986;8.894;2023-04-25T11:15:06;101243.16;;;10.23;64.69
78444;BME280;67739;52.986;8.894;2023-04-25T11:17:32;101240.72;;;10.39;63.33
78444;BME280;67739;52.986;8.894;2023-04-25T11:19:58;101239.97;;;10.57;62.16
78444;BME280;67739;52.986;8.894;2023-04-25T11:22:24;101235.19;;;10.86;63.34
78444;BME280;67739;52.986;8.894;2023-04-25T11:24:49;101230.72;;;11.27;63.93
78444;BME280;67739;52.986;8.894;2023-04-25T11:27:15;101234.59;;;11.60;60.57
78444;BME280;67739;52.986;8.894;2023-04-25T11:29:41;101229.47;;;11.95;61.38
78444;BME280;67739;52.986;8.894;2023-04-25T11:32:06;101225.59;;;12.19;56.86
78444;BME280;67739;52.986;8.894;2023-04-25T11:34:33;101228.66;;;12.30;54.72
78444;BME280;67739;52.986;8.894;2023-04-25T11:37:02;101232.94;;;12.34;52.83
78444;BME280;67739;52.986;8.894;2023-04-25T11:39:28;101233.78;;;12.54;53.19
78444;BME280;67739;52.986;8.894;2023-04-25T11:41:54;101242.34;;;12.62;51.10
78444;BME280;67739;52.986;8.894;2023-04-25T11:44:21;101246.31;;;12.55;51.60
78444;BME280;67739;52.986;8.894;2023-04-25T11:46:46;101259.69;;;12.19;49.40
78444;BME280;67739;52.986;8.894;2023-04-25T11:49:13;101281.53;;;11.53;51.84
78444;BME280;67739;52.986;8.894;2023-04-25T11:51:43;101291.56;;;10.86;54.84
78444;BME280;67739;52.986;8.894;2023-04-25T11:54:09;101297.91;;;10.16;56.97
78444;BME280;67739;52.986;8.894;2023-04-25T11:56:35;101297.41;;;9.58;60.44
78444;BME280;67739;52.986;8.894;2023-04-25T11:59:03;101296.91;;;9.23;62.29
78444;BME280;67739;52.986;8.894;2023-04-25T12:01:33;101295.81;;;9.02;63.81
78444;BME280;67739;52.986;8.894;2023-04-25T12:04:10;101296.84;;;8.98;65.84
78444;BME280;67739;52.986;8.894;2023-04-25T12:06:39;101308.28;;;9.03;65.92
78444;BME280;67739;52.986;8.894;2023-04-25T12:09:10;101296.28;;;9.14;67.47
78444;BME280;67739;52.986;8.894;2023-04-25T12:11:46;101294.88;;;9.29;63.70
78444;BME280;67739;52.986;8.894;2023-04-25T12:14:12;101301.16;;;9.53;64.95
78444;BME280;67739;52.986;8.894;2023-04-25T12:16:46;101291.97;;;9.85;64.82
78444;BME280;67739;52.986;8.894;2023-04-25T12:19:19;101289.06;;;10.14;63.17
78444;BME280;67739;52.986;8.894;2023-04-25T12:21:45;101281.91;;;10.38;62.53
78444;BME280;67739;52.986;8.894;2023-04-25T12:24:16;101305.06;;;10.62;59.08
78444;BME280;67739;52.986;8.894;2023-04-25T12:27:00;101314.03;;;10.83;60.47
78444;BME280;67739;52.986;8.894;2023-04-25T12:29:27;101311.81;;;10.94;58.72
78444;BME280;67739;52.986;8.894;2023-04-25T12:31:53;101305.22;;;11.02;55.93
78444;BME280;67739;52.986;8.894;2023-04-25T12:34:20;101315.06;;;10.81;54.69
78444;BME280;67739;52.986;8.894;2023-04-25T12:36:46;101325.56;;;10.42;55.34
78444;BME280;67739;52.986;8.894;2023-04-25T12:39:18;101325.56;;;10.18;57.07
78444;BME280;67739;52.986;8.894;2023-04-25T12:41:45;101313.59;;;10.04;57.92
78444;BME280;67739;52.986;8.894;2023-04-25T12:44:10;101329.78;;;9.77;57.31
78444;BME280;67739;52.986;8.894;2023-04-25T12:46:36;101324.25;;;9.57;56.76
78444;BME280;67739;52.986;8.894;2023-04-25T12:49:02;101315.16;;;9.36;56.78
78444;BME280;67739;52.986;8.894;2023-04-25T12:51:28;101317.16;;;9.30;57.99
78444;BME280;67739;52.986;8.894;2023-04-25T12:53:54;101306.34;;;9.33;57.94